Terminal Aerodrome Forecast
Issued by NWS Duluth, MN

Home | Current Version | Previous Version | Text Only | Print | Product List | Glossary On
Versions: 1 2 3 4 5 6 7 8 9 10 11 12 13 14 15 16 17 18 19 20 21 22 23 24 25 26 27 28 29
000
FTUS43 KDLH 212200 AAA
TAFDLH
TAF AMD
KDLH 212223Z 2122/2218 13010KT 1/2SM -DZ FG OVC003
      TEMPO 2122/2201 1/4SM -FZDZSN FG VV002
     FM220100 12009KT 1/2SM -DZSN FG VV002
     FM220800 10005KT 3/4SM -DZ BR OVC002=

USA.gov is the U.S. government's official web portal to all federal, state and local government web resources and services.